createdAt,value
2022-08-17T00:08:13.479Z,20.70
2022-08-17T00:11:28.659Z,20.70
2022-08-17T00:28:21.294Z,20.70
2022-08-17T00:31:19.974Z,20.80
2022-08-17T00:34:02.454Z,20.90
2022-08-17T00:37:04.047Z,20.90
2022-08-17T00:39:50.389Z,20.90
2022-08-17T00:42:20.507Z,20.90
2022-08-17T00:45:15.618Z,20.90
2022-08-17T00:48:29.454Z,20.90
2022-08-17T00:51:46.587Z,20.90
2022-08-17T01:01:21.343Z,20.90
2022-08-17T01:03:59.249Z,20.90
2022-08-17T01:07:00.779Z,20.90
2022-08-17T01:20:43.120Z,20.80
2022-08-17T01:27:51.962Z,20.70
2022-08-17T01:31:03.896Z,20.70
2022-08-17T01:33:48.661Z,20.70
2022-08-17T01:36:31.689Z,20.70
2022-08-17T01:39:24.798Z,20.70
2022-08-17T01:42:25.103Z,20.60
2022-08-17T01:45:28.821Z,20.60
2022-08-17T01:48:36.016Z,20.60
2022-08-17T01:51:54.233Z,20.60
2022-08-17T01:58:32.281Z,20.60
2022-08-17T02:08:20.142Z,20.60
2022-08-17T02:11:30.197Z,20.60
2022-08-17T02:14:53.406Z,20.50
2022-08-17T02:17:54.838Z,20.50
2022-08-17T02:20:43.077Z,20.40
2022-08-17T02:26:09.693Z,20.30
2022-08-17T02:28:54.633Z,20.30
2022-08-17T02:31:45.713Z,20.30
2022-08-17T02:34:48.433Z,20.30
2022-08-17T02:37:24.396Z,20.40
2022-08-17T02:53:51.599Z,20.90
2022-08-17T04:24:48.701Z,19.90
2022-08-17T04:31:55.793Z,20.00
2022-08-17T04:35:23.689Z,20.00
2022-08-17T04:46:20.235Z,19.90
2022-08-17T04:49:01.961Z,19.70
2022-08-17T04:55:19.809Z,19.60
2022-08-17T08:32:55.326Z,19.90
2022-08-17T08:35:34.565Z,19.80
2022-08-17T08:38:18.776Z,19.80
2022-08-17T08:55:45.156Z,19.50
2022-08-17T09:06:33.600Z,19.60
2022-08-17T09:37:12.434Z,20.00
2022-08-17T09:40:24.971Z,20.10
2022-08-17T09:43:08.374Z,20.20
2022-08-17T09:45:43.931Z,20.20
2022-08-17T09:48:19.006Z,20.00
2022-08-17T09:51:22.395Z,20.00
2022-08-17T09:54:37.428Z,19.90
2022-08-17T10:00:47.956Z,19.90
2022-08-17T10:07:16.133Z,19.90
2022-08-17T10:10:22.374Z,19.90
2022-08-17T10:13:18.460Z,20.10
2022-08-17T10:16:22.290Z,20.20
2022-08-17T10:47:55.606Z,19.90
2022-08-17T10:51:02.730Z,19.80
2022-08-17T10:58:13.922Z,19.90
2022-08-17T11:07:48.979Z,20.20
2022-08-17T11:11:18.432Z,20.40
2022-08-17T11:14:32.118Z,20.70
2022-08-17T11:17:44.342Z,20.90
2022-08-17T11:21:20.365Z,21.10
2022-08-17T11:24:55.510Z,21.30
2022-08-17T11:31:10.040Z,21.40
2022-08-17T11:33:59.308Z,21.40
2022-08-17T13:08:48.787Z,19.20
2022-08-17T13:12:02.417Z,19.20
2022-08-17T13:14:56.480Z,19.20
2022-08-17T13:22:23.113Z,19.20
2022-08-17T13:33:47.684Z,19.30
2022-08-17T13:46:31.247Z,19.40
2022-08-17T13:56:33.279Z,19.40
2022-08-17T13:59:17.959Z,19.40
2022-08-17T14:02:33.877Z,19.50
2022-08-17T14:05:27.436Z,19.40
2022-08-17T14:20:50.307Z,19.60
2022-08-17T15:19:13.588Z,19.90
2022-08-17T15:22:23.340Z,19.90
2022-08-17T15:25:07.884Z,19.90
2022-08-17T15:27:45.375Z,19.90
2022-08-17T15:30:29.218Z,19.90
2022-08-17T15:39:40.741Z,20.00
2022-08-17T15:42:32.733Z,20.10
2022-08-17T15:48:58.931Z,20.20
2022-08-17T15:51:49.009Z,20.30
2022-08-17T15:58:06.040Z,20.30
2022-08-17T16:01:15.013Z,20.40
2022-08-17T16:04:27.254Z,20.50
2022-08-17T16:10:00.186Z,20.50
2022-08-17T16:12:56.536Z,20.50
2022-08-17T16:15:31.029Z,20.60
2022-08-17T16:18:21.550Z,20.60
2022-08-17T16:21:17.052Z,20.60
2022-08-17T16:24:03.353Z,20.70
2022-08-17T16:29:43.691Z,20.70
2022-08-17T16:32:31.299Z,20.70
2022-08-17T16:35:22.869Z,20.70
2022-08-17T16:38:07.469Z,20.60
2022-08-17T16:40:46.017Z,20.60
2022-08-17T16:43:46.331Z,20.60
2022-08-17T16:46:26.786Z,20.50
2022-08-17T16:52:32.379Z,20.50
2022-08-17T16:55:29.291Z,20.50
2022-08-17T16:58:03.068Z,20.60
2022-08-17T17:00:34.555Z,20.50
2022-08-17T17:03:58.282Z,20.50
2022-08-17T17:06:39.491Z,20.60
2022-08-17T17:09:21.080Z,20.60
2022-08-17T17:11:54.675Z,20.60
2022-08-17T17:14:28.688Z,20.60
2022-08-17T17:17:13.628Z,20.60
2022-08-17T17:20:04.598Z,20.70
2022-08-17T17:23:00.858Z,20.70
2022-08-17T17:25:53.809Z,20.70
2022-08-17T17:28:35.968Z,20.70
2022-08-17T17:34:49.146Z,20.70
2022-08-17T17:37:46.359Z,20.60
2022-08-17T17:40:46.262Z,20.60
2022-08-17T17:43:57.972Z,20.60
2022-08-17T17:46:44.115Z,20.50
2022-08-17T17:50:05.401Z,20.50
2022-08-17T17:53:43.090Z,20.40
2022-08-17T17:59:32.734Z,20.40
2022-08-17T18:02:53.259Z,20.40
2022-08-17T18:06:08.177Z,20.50
2022-08-17T18:12:20.426Z,20.40
2022-08-17T18:26:18.261Z,20.50
2022-08-17T18:29:01.366Z,20.40
2022-08-17T18:39:52.913Z,20.30
2022-08-17T18:46:53.730Z,20.20
2022-08-17T18:54:14.472Z,20.10
2022-08-17T18:57:09.568Z,20.20
2022-08-17T19:07:37.084Z,20.10
2022-08-17T19:10:28.042Z,20.10
2022-08-17T19:13:30.583Z,20.00
2022-08-17T19:19:01.375Z,20.00
2022-08-17T19:22:31.177Z,20.10
2022-08-17T19:26:50.826Z,20.00
2022-08-17T19:36:30.851Z,20.00
2022-08-17T19:43:43.220Z,20.00
2022-08-17T19:47:36.263Z,20.10
2022-08-17T19:54:58.259Z,20.10
2022-08-17T20:14:33.126Z,20.10
2022-08-17T20:17:12.297Z,20.10
2022-08-17T20:19:57.095Z,20.00
2022-08-17T20:22:46.779Z,19.90
2022-08-17T20:28:39.624Z,19.80
2022-08-17T20:31:47.284Z,19.80
2022-08-17T20:34:53.223Z,19.80
2022-08-17T20:37:34.891Z,19.80
2022-08-17T20:40:51.869Z,19.70
2022-08-17T20:44:16.640Z,19.70
2022-08-17T20:53:33.097Z,19.70
2022-08-17T20:56:50.526Z,19.60
2022-08-17T21:07:43.687Z,19.60
2022-08-17T21:11:12.201Z,19.60
2022-08-17T21:14:46.233Z,19.60
2022-08-17T21:18:05.364Z,19.60
2022-08-17T21:20:45.028Z,19.60
2022-08-17T21:23:35.477Z,19.60
2022-08-17T21:26:30.180Z,19.60
2022-08-17T21:32:26.789Z,19.70
2022-08-17T21:35:30.274Z,19.70
2022-08-17T21:38:32.321Z,19.70
2022-08-17T21:41:13.038Z,19.70
2022-08-17T21:44:02.735Z,19.70
2022-08-17T21:46:40.312Z,19.70
2022-08-17T21:49:16.172Z,19.70
2022-08-17T21:51:56.039Z,19.70
2022-08-17T21:58:14.072Z,19.80
2022-08-17T22:01:51.808Z,19.80
2022-08-17T22:08:03.132Z,19.70
2022-08-17T22:10:49.583Z,19.70
2022-08-17T22:13:32.204Z,19.70
2022-08-17T22:16:50.992Z,19.70
2022-08-17T22:23:19.660Z,19.60
2022-08-17T22:26:37.756Z,19.60
2022-08-17T22:30:13.639Z,19.60
2022-08-17T22:33:31.888Z,19.50
2022-08-17T22:36:44.728Z,19.60
2022-08-17T22:40:00.455Z,19.50
2022-08-17T22:42:49.925Z,19.60
2022-08-17T22:45:52.592Z,19.60
2022-08-17T22:48:42.255Z,19.60
2022-08-17T22:54:19.294Z,19.60
2022-08-17T22:57:24.844Z,19.60
2022-08-17T22:59:58.193Z,19.50
2022-08-17T23:02:52.997Z,19.40
2022-08-17T23:05:27.980Z,19.40
2022-08-17T23:08:03.020Z,19.40
2022-08-17T23:10:47.884Z,19.40
2022-08-17T23:17:03.649Z,19.40
2022-08-17T23:22:57.575Z,19.40
2022-08-17T23:25:36.285Z,19.30
2022-08-17T23:28:41.395Z,19.30
2022-08-17T23:32:02.019Z,19.30
2022-08-17T23:35:05.344Z,19.20
2022-08-17T23:37:55.399Z,19.20
2022-08-17T23:40:58.152Z,19.30
2022-08-17T23:43:39.114Z,19.30
2022-08-17T23:46:38.996Z,19.30
2022-08-17T23:49:35.321Z,19.30
2022-08-17T23:52:36.414Z,19.30
2022-08-17T23:55:12.952Z,19.20
2022-08-17T23:57:45.724Z,19.20
